createdAt,value
2022-12-22T00:01:15.529Z,88.35
2022-12-22T00:02:37.778Z,88.11
2022-12-22T00:03:53.398Z,88.31
2022-12-22T00:05:08.874Z,88.49
2022-12-22T00:06:28.219Z,88.47
2022-12-22T00:07:43.343Z,88.58
2022-12-22T00:09:05.073Z,88.10
2022-12-22T00:10:20.616Z,87.88
2022-12-22T00:11:35.811Z,87.05
2022-12-22T00:12:51.302Z,86.38
2022-12-22T00:14:06.730Z,86.68
2022-12-22T00:15:23.557Z,86.90
2022-12-22T00:16:39.097Z,86.51
2022-12-22T00:17:54.295Z,85.66
2022-12-22T00:19:09.794Z,86.97
2022-12-22T00:20:39.119Z,87.34
2022-12-22T00:21:54.594Z,87.52
2022-12-22T00:23:09.659Z,87.62
2022-12-22T00:24:25.047Z,87.64
2022-12-22T00:25:39.907Z,87.42
2022-12-22T00:26:55.342Z,87.12
2022-12-22T00:28:10.887Z,86.49
2022-12-22T00:29:33.073Z,86.73
2022-12-22T00:30:48.572Z,86.53
2022-12-22T00:32:04.294Z,87.66
2022-12-22T00:33:21.466Z,87.34
2022-12-22T00:34:41.309Z,86.59
2022-12-22T00:35:56.804Z,87.59
2022-12-22T00:37:11.603Z,87.62
2022-12-22T00:38:33.011Z,87.42
2022-12-22T00:39:47.960Z,88.05
2022-12-22T00:41:02.909Z,87.51
2022-12-22T00:42:18.174Z,88.02
2022-12-22T00:43:33.563Z,87.51
2022-12-22T00:44:48.463Z,86.77
2022-12-22T00:46:03.725Z,86.81
2022-12-22T00:47:19.009Z,87.59
2022-12-22T00:48:41.135Z,87.16
2022-12-22T00:49:59.643Z,88.04
2022-12-22T00:51:14.817Z,88.10
2022-12-22T00:52:30.683Z,88.05
2022-12-22T00:53:45.582Z,88.27
2022-12-22T00:55:01.689Z,88.55
2022-12-22T00:56:16.814Z,88.33
2022-12-22T00:57:38.320Z,87.98
2022-12-22T00:58:54.515Z,88.37
2022-12-22T01:00:11.760Z,88.14
2022-12-22T01:01:29.505Z,88.34
2022-12-22T01:02:44.657Z,88.50
2022-12-22T01:04:00.004Z,88.82
2022-12-22T01:05:15.343Z,88.40
2022-12-22T01:06:30.741Z,88.46
2022-12-22T01:07:46.111Z,88.67
2022-12-22T01:09:01.845Z,88.42
2022-12-22T01:10:17.394Z,88.47
2022-12-22T01:11:32.650Z,88.13
2022-12-22T01:12:56.050Z,88.00
2022-12-22T01:14:11.108Z,88.24
2022-12-22T01:15:32.166Z,88.46
2022-12-22T01:16:47.572Z,88.63
2022-12-22T01:18:02.997Z,89.00
2022-12-22T01:19:18.012Z,88.57
2022-12-22T01:20:33.152Z,88.63
2022-12-22T01:21:48.569Z,88.78
2022-12-22T01:23:03.573Z,89.06
2022-12-22T01:24:18.699Z,89.56
2022-12-22T01:25:36.591Z,88.99
2022-12-22T01:26:51.895Z,89.37
2022-12-22T01:28:07.296Z,88.39
2022-12-22T01:29:22.294Z,87.07
2022-12-22T01:30:37.199Z,86.48
2022-12-22T01:31:52.681Z,87.05
2022-12-22T01:33:07.749Z,86.34
2022-12-22T01:34:22.910Z,86.97
2022-12-22T01:35:43.515Z,86.05
2022-12-22T01:36:58.467Z,84.76
2022-12-22T01:38:13.797Z,84.78
2022-12-22T01:39:28.543Z,86.22
2022-12-22T01:40:43.962Z,86.73
2022-12-22T01:41:59.276Z,88.42
2022-12-22T01:43:14.193Z,88.20
2022-12-22T01:44:34.825Z,88.37
2022-12-22T01:45:54.344Z,88.20
2022-12-22T01:47:09.317Z,89.07
2022-12-22T01:48:29.351Z,89.24
2022-12-22T01:50:01.284Z,89.56
2022-12-22T01:51:20.333Z,89.43
2022-12-22T01:52:37.795Z,89.36
2022-12-22T01:53:53.646Z,90.04
2022-12-22T01:55:09.359Z,89.94
2022-12-22T01:56:25.396Z,89.70
2022-12-22T01:57:40.895Z,89.59
2022-12-22T01:59:00.858Z,89.48
2022-12-22T02:00:16.164Z,89.85
2022-12-22T02:01:31.708Z,90.04
2022-12-22T02:02:49.968Z,90.21
2022-12-22T02:04:05.045Z,90.04
2022-12-22T02:05:23.087Z,90.10
2022-12-22T02:06:54.619Z,90.40
2022-12-22T02:08:41.821Z,91.16
2022-12-22T02:10:27.528Z,91.33
2022-12-22T02:12:11.198Z,90.67
2022-12-22T02:13:48.214Z,90.15
2022-12-22T02:15:20.305Z,89.40
2022-12-22T02:16:52.151Z,89.76
2022-12-22T02:18:46.971Z,88.85
2022-12-22T02:20:26.978Z,89.12
2022-12-22T02:21:44.313Z,87.96
2022-12-22T02:23:11.462Z,87.54
2022-12-22T02:24:35.042Z,88.48
2022-12-22T02:26:00.238Z,88.67
2022-12-22T02:27:19.605Z,88.89
2022-12-22T02:28:35.148Z,88.74
2022-12-22T02:29:55.668Z,88.47
2022-12-22T02:31:11.645Z,88.77
2022-12-22T02:32:26.947Z,88.03
2022-12-22T02:33:43.407Z,87.84
2022-12-22T02:34:58.491Z,87.75
2022-12-22T02:36:38.306Z,87.36
2022-12-22T02:38:24.375Z,86.54
2022-12-22T02:39:54.927Z,86.54
2022-12-22T02:41:32.171Z,85.73
2022-12-22T02:42:50.430Z,85.20
2022-12-22T02:44:44.322Z,83.98
2022-12-22T02:46:22.335Z,82.93
2022-12-22T02:48:06.118Z,82.49
2022-12-22T02:49:40.166Z,82.63
2022-12-22T02:51:03.736Z,82.28
2022-12-22T02:52:34.746Z,82.50
2022-12-22T02:53:50.733Z,84.09
2022-12-22T02:55:05.821Z,85.57
2022-12-22T02:56:29.627Z,86.15
2022-12-22T02:57:45.177Z,86.78
2022-12-22T02:59:00.109Z,87.52
2022-12-22T03:00:15.265Z,87.67
2022-12-22T03:01:30.676Z,87.73
2022-12-22T03:02:45.797Z,87.92
2022-12-22T03:04:01.376Z,88.19
2022-12-22T03:05:16.718Z,89.07
2022-12-22T03:06:32.169Z,88.92
2022-12-22T03:07:47.092Z,89.30
2022-12-22T03:09:01.981Z,89.76
2022-12-22T03:10:17.462Z,89.83
2022-12-22T03:11:32.382Z,90.47
2022-12-22T03:12:47.520Z,90.36
2022-12-22T03:14:02.650Z,90.21
2022-12-22T03:15:17.467Z,90.83
2022-12-22T03:16:32.450Z,90.27
2022-12-22T03:17:47.861Z,90.18
2022-12-22T03:19:03.095Z,90.04
2022-12-22T03:20:18.273Z,90.36
2022-12-22T03:21:34.541Z,90.24
2022-12-22T03:22:49.451Z,90.06
2022-12-22T03:24:04.866Z,90.43
2022-12-22T03:25:19.844Z,89.98
2022-12-22T03:26:16.440Z,89.52
2022-12-22T03:27:13.197Z,90.00
2022-12-22T03:28:09.951Z,90.05
2022-12-22T03:29:06.990Z,90.04
2022-12-22T03:30:04.263Z,90.26
2022-12-22T03:31:05.077Z,90.05
2022-12-22T03:32:01.999Z,90.31
2022-12-22T03:32:58.922Z,90.64
2022-12-22T03:33:55.674Z,90.35
2022-12-22T03:34:52.239Z,90.88
2022-12-22T03:35:48.879Z,91.11
2022-12-22T03:36:45.488Z,90.80
2022-12-22T03:37:42.079Z,90.64
2022-12-22T03:38:38.691Z,90.88
2022-12-22T03:39:35.912Z,91.27
2022-12-22T03:40:32.912Z,91.47
2022-12-22T03:41:48.038Z,91.29
2022-12-22T03:43:03.640Z,91.83
2022-12-22T03:44:18.829Z,91.69
2022-12-22T03:45:34.212Z,91.51
2022-12-22T03:46:30.875Z,91.55
2022-12-22T03:47:27.537Z,90.76
2022-12-22T03:48:24.144Z,90.72
2022-12-22T03:49:22.483Z,90.86
2022-12-22T03:50:19.071Z,91.52
2022-12-22T03:51:15.654Z,90.71
2022-12-22T03:52:12.279Z,90.98
2022-12-22T03:53:08.843Z,91.02
2022-12-22T03:54:05.497Z,91.56
2022-12-22T03:55:02.407Z,91.28
2022-12-22T03:56:04.099Z,92.03
2022-12-22T03:57:04.103Z,92.20
2022-12-22T03:58:00.746Z,92.36
2022-12-22T03:58:57.466Z,91.92
2022-12-22T03:59:53.999Z,92.59
2022-12-22T04:00:50.692Z,92.55
2022-12-22T04:01:50.593Z,92.80
2022-12-22T04:02:47.337Z,92.44
2022-12-22T04:03:43.987Z,92.36
2022-12-22T04:04:40.674Z,92.75
2022-12-22T04:05:37.389Z,92.66
2022-12-22T04:06:33.997Z,92.22
2022-12-22T04:07:30.708Z,92.42
2022-12-22T04:08:27.373Z,92.21
2022-12-22T04:09:24.933Z,92.76
2022-12-22T04:10:39.870Z,92.47
2022-12-22T04:11:55.114Z,92.77
2022-12-22T04:12:55.443Z,92.84
2022-12-22T04:13:51.996Z,92.73
2022-12-22T04:14:48.554Z,92.55
2022-12-22T04:15:45.100Z,92.71
2022-12-22T04:16:41.810Z,92.17
2022-12-22T04:17:38.643Z,91.88
2022-12-22T04:18:35.224Z,92.59
2022-12-22T04:19:32.052Z,92.48
2022-12-22T04:20:28.970Z,92.25
2022-12-22T04:21:26.104Z,91.85
2022-12-22T04:22:22.680Z,92.58
2022-12-22T04:23:19.313Z,92.56
2022-12-22T04:24:16.202Z,92.13
2022-12-22T04:25:13.491Z,92.17
2022-12-22T04:26:10.380Z,93.03
2022-12-22T04:27:06.945Z,92.68
2022-12-22T04:28:03.629Z,92.54
2022-12-22T04:29:00.325Z,92.45
2022-12-22T04:29:57.014Z,92.78
2022-12-22T04:30:53.574Z,92.88
2022-12-22T04:31:50.426Z,92.78
2022-12-22T04:32:47.250Z,92.55
2022-12-22T04:33:43.907Z,92.28
2022-12-22T04:34:40.516Z,92.41
2022-12-22T04:35:37.171Z,92.08
2022-12-22T04:36:33.783Z,92.61
2022-12-22T04:37:30.333Z,92.59
2022-12-22T04:38:26.961Z,92.14
2022-12-22T04:39:23.580Z,92.32
2022-12-22T04:40:20.157Z,92.67
2022-12-22T04:41:16.701Z,92.60
2022-12-22T04:42:13.397Z,92.16
2022-12-22T04:43:10.033Z,92.30
2022-12-22T04:44:07.010Z,92.41
2022-12-22T04:45:05.447Z,92.43
2022-12-22T04:46:02.154Z,91.83
2022-12-22T04:46:58.815Z,91.79
2022-12-22T04:47:55.447Z,92.33
2022-12-22T04:48:56.192Z,92.18
2022-12-22T04:49:56.118Z,92.82
2022-12-22T04:50:55.172Z,92.51
2022-12-22T04:51:51.830Z,92.46
2022-12-22T04:52:48.409Z,92.93
2022-12-22T04:53:44.983Z,93.29
2022-12-22T04:54:41.543Z,92.92
2022-12-22T04:55:38.104Z,93.44
2022-12-22T04:56:34.691Z,93.25
2022-12-22T04:57:34.332Z,93.81
2022-12-22T04:58:35.982Z,93.53
2022-12-22T04:59:32.594Z,93.86
2022-12-22T05:00:29.173Z,94.38
2022-12-22T05:01:26.105Z,93.97
2022-12-22T05:02:22.872Z,93.62
2022-12-22T05:03:20.069Z,94.30
2022-12-22T05:04:23.367Z,93.86
2022-12-22T05:05:20.342Z,93.35
2022-12-22T05:06:16.963Z,93.10
2022-12-22T05:07:13.593Z,92.64
2022-12-22T05:08:10.617Z,92.56
2022-12-22T05:09:07.233Z,92.53
2022-12-22T05:10:06.910Z,92.33
2022-12-22T05:11:03.876Z,92.35
2022-12-22T05:12:00.467Z,91.79
2022-12-22T05:12:57.845Z,90.87
2022-12-22T05:13:54.430Z,90.94
2022-12-22T05:14:51.195Z,90.29
2022-12-22T05:15:47.787Z,90.87
2022-12-22T05:16:44.443Z,90.36
2022-12-22T05:17:41.066Z,89.59
2022-12-22T05:18:38.761Z,88.68
2022-12-22T05:19:35.343Z,89.47
2022-12-22T05:20:32.118Z,90.18
2022-12-22T05:21:28.730Z,90.69
2022-12-22T05:22:25.341Z,90.95
2022-12-22T05:23:21.984Z,91.36
2022-12-22T05:24:18.595Z,91.51
2022-12-22T05:25:19.924Z,92.02
2022-12-22T05:26:19.190Z,92.52
2022-12-22T05:27:15.827Z,92.74
2022-12-22T05:28:12.447Z,92.95
2022-12-22T05:29:09.037Z,92.38
2022-12-22T05:30:06.341Z,91.90
2022-12-22T05:31:20.313Z,91.69
2022-12-22T05:32:17.088Z,92.48
2022-12-22T05:33:13.807Z,92.63
2022-12-22T05:34:10.419Z,92.89
2022-12-22T05:35:08.105Z,92.73
2022-12-22T05:36:04.934Z,93.57
2022-12-22T05:37:01.542Z,93.35
2022-12-22T05:37:58.435Z,93.43
2022-12-22T05:38:54.999Z,93.81
2022-12-22T05:39:51.527Z,93.24
2022-12-22T05:40:48.538Z,93.75
2022-12-22T05:41:45.332Z,93.53
2022-12-22T05:42:42.046Z,93.63
2022-12-22T05:43:39.124Z,93.58
2022-12-22T05:44:35.711Z,93.38
2022-12-22T05:45:32.322Z,92.82
2022-12-22T05:46:28.935Z,93.24
2022-12-22T05:47:25.520Z,92.93
2022-12-22T05:48:28.317Z,93.43
2022-12-22T05:49:27.619Z,93.58
2022-12-22T05:50:26.049Z,93.15
2022-12-22T05:51:22.655Z,92.97
2022-12-22T05:52:19.248Z,93.31
2022-12-22T05:53:15.874Z,93.76
2022-12-22T05:54:12.794Z,93.41
2022-12-22T05:55:10.395Z,93.71
2022-12-22T05:56:07.875Z,93.70
2022-12-22T05:57:04.522Z,93.78
2022-12-22T05:58:02.311Z,93.73
2022-12-22T05:58:58.882Z,94.33
2022-12-22T05:59:55.654Z,94.06
2022-12-22T06:00:52.275Z,94.25
2022-12-22T06:01:48.861Z,94.55
2022-12-22T06:02:45.740Z,93.83
2022-12-22T06:03:42.491Z,93.97
2022-12-22T06:04:39.223Z,94.34
2022-12-22T06:05:35.812Z,94.14
2022-12-22T06:06:32.432Z,93.85
2022-12-22T06:07:29.034Z,94.30
2022-12-22T06:08:26.482Z,93.67
2022-12-22T06:09:23.196Z,94.34
2022-12-22T06:10:19.828Z,94.13
2022-12-22T06:11:18.375Z,93.72
2022-12-22T06:12:15.054Z,93.88
2022-12-22T06:13:11.697Z,94.29
2022-12-22T06:14:08.458Z,94.26
2022-12-22T06:15:05.962Z,94.02
2022-12-22T06:16:02.649Z,94.01
2022-12-22T06:16:59.274Z,94.18
2022-12-22T06:17:55.905Z,93.53
2022-12-22T06:18:52.464Z,94.07
2022-12-22T06:19:49.061Z,93.47
2022-12-22T06:20:47.026Z,93.68
2022-12-22T06:21:43.614Z,93.38
2022-12-22T06:22:40.437Z,93.03
2022-12-22T06:23:36.993Z,93.78
2022-12-22T06:24:33.633Z,93.75
2022-12-22T06:25:30.202Z,93.21
2022-12-22T06:26:26.731Z,92.83
2022-12-22T06:27:23.466Z,92.76
2022-12-22T06:28:20.083Z,92.74
2022-12-22T06:29:16.822Z,91.91
2022-12-22T06:30:15.492Z,91.99
2022-12-22T06:31:12.319Z,91.14
2022-12-22T06:32:08.987Z,90.74
2022-12-22T06:33:05.543Z,91.31
2022-12-22T06:34:02.159Z,91.38
2022-12-22T06:34:58.813Z,90.95
2022-12-22T06:35:59.040Z,91.07
2022-12-22T06:36:56.145Z,90.34
2022-12-22T06:37:52.702Z,90.00
2022-12-22T06:38:49.975Z,89.71
2022-12-22T06:39:47.319Z,90.21
2022-12-22T06:40:43.972Z,90.02
2022-12-22T06:41:59.603Z,90.20
2022-12-22T06:43:11.333Z,90.11
2022-12-22T06:44:07.845Z,90.03
2022-12-22T06:45:04.853Z,90.19
2022-12-22T06:46:01.567Z,90.56
2022-12-22T06:46:58.249Z,90.15
2022-12-22T06:47:54.985Z,90.17
2022-12-22T06:48:52.241Z,90.35
2022-12-22T06:49:49.711Z,90.52
2022-12-22T06:50:46.499Z,90.11
2022-12-22T06:51:43.139Z,90.34
2022-12-22T06:52:39.888Z,90.48
2022-12-22T06:53:36.450Z,90.14
2022-12-22T06:54:33.089Z,90.77
2022-12-22T06:55:29.799Z,90.25
2022-12-22T06:56:26.400Z,90.49
2022-12-22T06:57:23.015Z,90.01
2022-12-22T06:58:19.569Z,90.25
2022-12-22T06:59:16.189Z,89.68
2022-12-22T07:00:13.207Z,89.67
2022-12-22T07:01:09.799Z,89.75
2022-12-22T07:02:07.034Z,88.79
2022-12-22T07:03:03.934Z,88.68
2022-12-22T07:04:00.934Z,87.99
2022-12-22T07:04:57.745Z,87.64
2022-12-22T07:05:54.311Z,87.55
2022-12-22T07:06:51.013Z,87.35
2022-12-22T07:07:47.683Z,87.33
2022-12-22T07:08:45.345Z,87.42
2022-12-22T07:09:41.893Z,87.65
2022-12-22T07:10:56.807Z,87.17
2022-12-22T07:11:53.404Z,87.31
2022-12-22T07:12:50.085Z,87.47
2022-12-22T07:13:47.893Z,86.93
2022-12-22T07:14:44.461Z,86.09
2022-12-22T07:15:41.026Z,85.87
2022-12-22T07:16:37.682Z,85.96
2022-12-22T07:17:34.340Z,86.05
2022-12-22T07:18:33.294Z,85.76
2022-12-22T07:19:29.941Z,86.08
2022-12-22T07:20:26.609Z,85.50
2022-12-22T07:21:23.263Z,85.70
2022-12-22T07:22:25.642Z,86.09
2022-12-22T07:23:26.749Z,85.75
2022-12-22T07:24:26.036Z,84.96
2022-12-22T07:25:22.705Z,84.72
2022-12-22T07:26:19.366Z,83.88
2022-12-22T07:27:16.311Z,83.75
2022-12-22T07:28:16.659Z,84.34
2022-12-22T07:29:17.175Z,84.50
2022-12-22T07:30:14.135Z,83.62
2022-12-22T07:31:12.028Z,82.98
2022-12-22T07:32:08.778Z,83.65
2022-12-22T07:33:05.482Z,83.47
2022-12-22T07:34:02.113Z,84.41
2022-12-22T07:35:04.741Z,84.43
2022-12-22T07:36:12.514Z,84.79
2022-12-22T07:37:09.064Z,84.86
2022-12-22T07:38:05.659Z,85.23
2022-12-22T07:39:02.661Z,85.09
2022-12-22T07:39:59.393Z,85.29
2022-12-22T07:41:04.504Z,84.52
2022-12-22T07:42:19.967Z,84.59
2022-12-22T07:43:16.567Z,84.10
2022-12-22T07:44:13.222Z,84.08
2022-12-22T07:45:10.791Z,84.05
2022-12-22T07:46:07.615Z,83.86
2022-12-22T07:47:04.437Z,83.86
2022-12-22T07:48:02.379Z,84.02
2022-12-22T07:49:18.248Z,83.36
2022-12-22T07:50:29.884Z,83.03
2022-12-22T07:51:26.694Z,82.62
2022-12-22T07:52:23.388Z,82.33
2022-12-22T07:53:20.074Z,82.49
2022-12-22T07:54:17.259Z,82.56
2022-12-22T07:55:14.310Z,82.02
2022-12-22T07:56:10.964Z,81.64
2022-12-22T07:57:07.604Z,80.93
2022-12-22T07:58:04.188Z,80.22
2022-12-22T07:59:01.249Z,80.63
2022-12-22T07:59:57.868Z,79.78
2022-12-22T08:01:01.520Z,78.69
2022-12-22T08:01:58.305Z,78.75
2022-12-22T08:02:56.637Z,78.61
2022-12-22T08:03:53.291Z,78.55
2022-12-22T08:04:49.968Z,78.52
2022-12-22T08:05:46.665Z,78.96
2022-12-22T08:06:43.224Z,79.15
2022-12-22T08:07:39.843Z,80.19
2022-12-22T08:08:36.561Z,80.20
2022-12-22T08:09:33.242Z,80.50
2022-12-22T08:10:29.870Z,80.79
2022-12-22T08:11:26.742Z,79.74
2022-12-22T08:12:23.373Z,80.04
2022-12-22T08:13:20.583Z,79.37
2022-12-22T08:14:17.264Z,79.57
2022-12-22T08:15:13.912Z,78.68
2022-12-22T08:16:12.665Z,78.54
2022-12-22T08:17:09.283Z,78.60
2022-12-22T08:18:05.948Z,78.97
2022-12-22T08:19:04.922Z,78.80
2022-12-22T08:20:01.753Z,78.95
2022-12-22T08:20:58.420Z,79.28
2022-12-22T08:21:55.008Z,78.65
2022-12-22T08:22:51.683Z,78.31
2022-12-22T08:23:48.248Z,79.04
2022-12-22T08:24:44.905Z,79.09
2022-12-22T08:25:41.572Z,78.71
2022-12-22T08:26:44.159Z,78.86
2022-12-22T08:27:50.905Z,78.02
2022-12-22T08:28:55.028Z,78.62
2022-12-22T08:29:55.606Z,78.86
2022-12-22T08:30:52.517Z,78.43
2022-12-22T08:31:49.491Z,78.08
2022-12-22T08:32:48.234Z,78.48
2022-12-22T08:33:45.284Z,78.21
2022-12-22T08:34:42.588Z,76.96
2022-12-22T08:35:39.369Z,76.13
2022-12-22T08:36:41.946Z,77.12
2022-12-22T08:37:42.950Z,77.00
2022-12-22T08:38:42.401Z,76.84
2022-12-22T08:39:41.832Z,77.24
2022-12-22T08:40:38.924Z,77.57
2022-12-22T08:41:52.194Z,77.66
2022-12-22T08:42:51.622Z,77.96
2022-12-22T08:43:48.248Z,76.88
2022-12-22T08:44:46.069Z,76.48
2022-12-22T08:45:42.974Z,77.41
2022-12-22T08:46:39.660Z,78.00
2022-12-22T08:47:36.310Z,78.10
2022-12-22T08:48:33.143Z,77.33
2022-12-22T08:49:29.720Z,76.32
2022-12-22T08:50:26.467Z,76.42
2022-12-22T08:51:23.381Z,76.01
2022-12-22T08:52:19.991Z,74.70
2022-12-22T08:53:45.227Z,75.54
2022-12-22T08:54:33.793Z,75.05
2022-12-22T08:55:30.568Z,73.83
2022-12-22T08:56:27.170Z,73.95
2022-12-22T08:57:23.755Z,73.75
2022-12-22T08:58:21.359Z,73.29
2022-12-22T08:59:18.191Z,73.27
2022-12-22T09:00:15.397Z,73.40
2022-12-22T09:01:23.647Z,74.02
2022-12-22T09:02:20.345Z,74.29
2022-12-22T09:03:17.014Z,74.02
2022-12-22T09:04:15.487Z,74.19
2022-12-22T09:05:12.129Z,74.55
2022-12-22T09:06:08.822Z,75.07
2022-12-22T09:07:05.759Z,73.47
2022-12-22T09:08:02.740Z,72.79
2022-12-22T09:09:03.256Z,73.07
2022-12-22T09:09:59.901Z,74.43
2022-12-22T09:10:56.650Z,75.20
2022-12-22T09:11:53.310Z,73.49
2022-12-22T09:12:51.440Z,72.15
2022-12-22T09:13:51.302Z,72.69
2022-12-22T09:14:47.860Z,73.49
2022-12-22T09:15:44.402Z,73.70
2022-12-22T09:16:41.329Z,72.82
2022-12-22T09:17:38.018Z,72.30
2022-12-22T09:18:34.860Z,72.56
2022-12-22T09:19:31.506Z,72.87
2022-12-22T09:20:28.093Z,72.51
2022-12-22T09:21:25.376Z,73.38
2022-12-22T09:22:28.209Z,73.49
2022-12-22T09:23:25.956Z,72.80
2022-12-22T09:24:22.538Z,73.45
2022-12-22T09:25:19.068Z,73.27
2022-12-22T09:26:18.573Z,74.01
2022-12-22T09:27:15.126Z,73.58
2022-12-22T09:28:12.267Z,73.40
2022-12-22T09:29:08.998Z,73.38
2022-12-22T09:30:06.327Z,72.85
2022-12-22T09:31:03.557Z,73.89
2022-12-22T09:32:00.289Z,73.01
2022-12-22T09:32:56.900Z,72.83
2022-12-22T09:33:54.073Z,72.79
2022-12-22T09:34:50.617Z,72.28
2022-12-22T09:35:47.327Z,72.37
2022-12-22T09:36:44.199Z,71.70
2022-12-22T09:37:40.942Z,71.72
2022-12-22T09:38:39.094Z,71.04
2022-12-22T09:39:35.754Z,70.18
2022-12-22T09:40:32.842Z,70.58
2022-12-22T09:41:37.216Z,71.33
2022-12-22T09:42:35.630Z,71.55
2022-12-22T09:43:32.245Z,71.47
2022-12-22T09:44:33.653Z,71.17
2022-12-22T09:45:31.243Z,71.99
2022-12-22T09:46:31.619Z,70.46
2022-12-22T09:47:37.826Z,70.81
2022-12-22T09:48:37.212Z,72.30
2022-12-22T09:49:33.908Z,72.49
2022-12-22T09:50:33.108Z,71.33
2022-12-22T09:51:31.123Z,71.03
2022-12-22T09:52:33.725Z,70.00
2022-12-22T09:53:31.161Z,70.32
2022-12-22T09:54:29.164Z,70.64
2022-12-22T09:55:25.871Z,70.78
2022-12-22T09:56:25.305Z,70.52
2022-12-22T09:57:26.639Z,71.61
2022-12-22T09:58:30.584Z,71.28
2022-12-22T09:59:28.732Z,70.68
2022-12-22T10:00:27.138Z,70.71
2022-12-22T10:01:58.225Z,71.13
2022-12-22T10:03:14.196Z,70.03
2022-12-22T10:04:43.052Z,70.68
2022-12-22T10:05:54.070Z,69.70
2022-12-22T10:07:26.114Z,69.42
2022-12-22T10:08:30.039Z,70.79
2022-12-22T10:09:49.562Z,70.20
2022-12-22T10:10:46.224Z,69.41
2022-12-22T10:11:57.347Z,68.40
2022-12-22T10:13:05.422Z,68.31
2022-12-22T10:14:02.004Z,69.67
2022-12-22T10:14:58.647Z,69.04
2022-12-22T10:15:56.069Z,68.47
2022-12-22T10:17:31.236Z,68.12
2022-12-22T10:18:29.913Z,68.43
2022-12-22T10:19:26.518Z,68.64
2022-12-22T10:20:28.301Z,65.91
2022-12-22T10:21:26.311Z,66.80
2022-12-22T10:22:32.173Z,66.99
2022-12-22T10:23:30.662Z,65.99
2022-12-22T10:24:29.356Z,66.58
2022-12-22T10:26:08.851Z,67.05
2022-12-22T10:26:57.525Z,67.41
2022-12-22T10:27:59.858Z,66.33
2022-12-22T10:29:06.011Z,65.25
2022-12-22T10:30:38.745Z,66.07
2022-12-22T10:31:39.582Z,65.88
2022-12-22T10:32:36.337Z,65.81
2022-12-22T10:33:34.764Z,65.90
2022-12-22T10:34:31.532Z,65.47
2022-12-22T10:35:42.436Z,63.77
2022-12-22T10:36:39.761Z,63.57
2022-12-22T10:37:39.943Z,63.09
2022-12-22T10:38:52.032Z,63.22
2022-12-22T10:39:48.646Z,64.06
2022-12-22T10:40:47.952Z,64.93
2022-12-22T10:41:48.783Z,65.76
2022-12-22T10:42:53.807Z,65.50
2022-12-22T10:43:53.698Z,66.25
2022-12-22T10:44:50.765Z,67.03
2022-12-22T10:45:49.204Z,66.19
2022-12-22T10:46:45.723Z,66.34
2022-12-22T10:47:48.694Z,65.59
2022-12-22T10:48:45.766Z,66.52
2022-12-22T10:49:45.656Z,65.86
2022-12-22T10:50:48.510Z,64.59
2022-12-22T10:52:08.261Z,64.59
2022-12-22T10:53:06.286Z,64.97
2022-12-22T10:54:03.087Z,65.84
2022-12-22T10:55:18.502Z,65.60
2022-12-22T10:56:30.861Z,64.92
2022-12-22T10:57:30.443Z,65.12
2022-12-22T10:58:28.560Z,64.84
2022-12-22T10:59:25.336Z,64.31
2022-12-22T11:00:30.989Z,65.87
2022-12-22T11:01:33.098Z,64.64
2022-12-22T11:02:38.378Z,64.73
2022-12-22T11:03:35.371Z,64.49
2022-12-22T11:04:32.090Z,64.49
2022-12-22T11:05:29.696Z,64.20
2022-12-22T11:06:26.416Z,64.17
2022-12-22T11:07:24.405Z,64.17
2022-12-22T11:08:21.275Z,63.85
2022-12-22T11:09:33.161Z,64.55
2022-12-22T11:10:36.960Z,63.90
2022-12-22T11:11:43.589Z,63.97
2022-12-22T11:13:04.976Z,63.56
2022-12-22T11:14:04.611Z,63.33
2022-12-22T11:15:11.967Z,64.19
2022-12-22T11:16:31.408Z,63.19
2022-12-22T11:17:39.378Z,62.25
2022-12-22T11:18:51.286Z,61.82
2022-12-22T11:20:02.698Z,61.83
2022-12-22T11:21:01.983Z,61.67
2022-12-22T11:22:10.699Z,61.69
2022-12-22T11:23:16.399Z,61.40
2022-12-22T11:24:34.679Z,62.02
2022-12-22T11:25:52.499Z,61.83
2022-12-22T11:26:51.685Z,61.15
2022-12-22T11:28:03.656Z,61.69
2022-12-22T11:29:15.472Z,62.03
2022-12-22T11:30:18.439Z,61.63
2022-12-22T11:31:33.880Z,61.26
2022-12-22T11:32:33.396Z,62.07
2022-12-22T11:33:56.502Z,62.99
2022-12-22T11:35:17.908Z,63.99
2022-12-22T11:36:26.379Z,64.36
2022-12-22T11:37:45.828Z,63.14
2022-12-22T11:38:50.319Z,62.85
2022-12-22T11:39:59.197Z,63.15
2022-12-22T11:41:05.441Z,63.36
2022-12-22T11:42:10.897Z,63.19
2022-12-22T11:43:17.875Z,62.17
2022-12-22T11:45:02.417Z,61.72
2022-12-22T11:46:13.947Z,61.68
2022-12-22T11:47:54.560Z,61.54
2022-12-22T11:48:58.129Z,61.73
2022-12-22T11:51:00.382Z,61.74
2022-12-22T11:51:54.240Z,62.47
2022-12-22T11:53:06.015Z,63.06
2022-12-22T11:54:23.629Z,61.60
2022-12-22T11:55:50.879Z,60.47
2022-12-22T11:57:39.788Z,60.46
2022-12-22T11:58:36.370Z,59.87
2022-12-22T12:00:03.655Z,59.47
2022-12-22T12:01:45.288Z,60.77
2022-12-22T12:03:14.406Z,61.57
2022-12-22T12:04:23.280Z,60.93
2022-12-22T12:05:57.892Z,61.16
2022-12-22T12:07:22.025Z,59.65
2022-12-22T12:08:34.645Z,60.91
2022-12-22T12:09:31.205Z,60.30
2022-12-22T12:10:32.735Z,59.87
2022-12-22T12:11:47.644Z,59.73
2022-12-22T12:13:00.142Z,60.54
2022-12-22T12:14:26.192Z,59.73
2022-12-22T12:15:29.875Z,59.95
2022-12-22T12:16:55.791Z,60.79
2022-12-22T12:18:27.599Z,60.63
2022-12-22T12:19:52.932Z,60.53
2022-12-22T12:21:18.261Z,60.07
2022-12-22T12:23:07.697Z,59.72
2022-12-22T12:24:16.015Z,59.45
2022-12-22T12:25:27.837Z,60.39
2022-12-22T12:26:49.862Z,59.62
2022-12-22T12:28:04.955Z,58.63
2022-12-22T12:29:13.131Z,59.63
2022-12-22T12:31:39.420Z,59.07
2022-12-22T12:32:56.273Z,59.01
2022-12-22T12:33:56.750Z,58.91
2022-12-22T12:35:02.696Z,58.10
2022-12-22T12:36:08.150Z,58.70
2022-12-22T12:37:13.287Z,59.12
2022-12-22T12:38:56.743Z,58.68
2022-12-22T12:39:38.245Z,58.31
2022-12-22T12:40:52.968Z,58.37
2022-12-22T12:41:49.568Z,58.45
2022-12-22T12:42:47.701Z,58.51
2022-12-22T12:43:45.613Z,58.86
2022-12-22T12:44:42.595Z,59.27
2022-12-22T12:45:44.107Z,59.61
2022-12-22T12:46:40.877Z,58.77
2022-12-22T12:47:38.477Z,58.61
2022-12-22T12:48:35.090Z,58.09
2022-12-22T12:49:34.515Z,58.86
2022-12-22T12:50:32.704Z,58.38
2022-12-22T12:51:49.595Z,58.32
2022-12-22T12:52:48.735Z,58.81
2022-12-22T12:54:43.744Z,59.14
2022-12-22T12:55:56.117Z,57.36
2022-12-22T12:57:00.785Z,58.16
2022-12-22T12:57:59.269Z,58.08
2022-12-22T12:58:58.042Z,58.97
2022-12-22T12:59:58.432Z,58.49
2022-12-22T13:00:58.825Z,57.96
2022-12-22T13:01:58.202Z,58.29
2022-12-22T13:03:52.908Z,58.07
2022-12-22T13:05:14.871Z,58.39
2022-12-22T13:06:57.709Z,58.86
2022-12-22T13:08:18.937Z,59.19
2022-12-22T13:10:48.888Z,58.86
2022-12-22T13:12:11.850Z,59.02
2022-12-22T13:13:02.566Z,60.37
2022-12-22T13:13:59.421Z,60.46
2022-12-22T13:15:01.441Z,59.89
2022-12-22T13:16:01.786Z,60.74
2022-12-22T13:17:34.160Z,60.59
2022-12-22T13:18:33.704Z,60.60
2022-12-22T13:19:31.010Z,60.96
2022-12-22T13:20:34.765Z,60.88
2022-12-22T13:21:53.027Z,60.81
2022-12-22T13:22:56.832Z,60.85
2022-12-22T13:25:17.023Z,61.19
2022-12-22T13:26:16.445Z,61.02
2022-12-22T13:27:13.179Z,61.41
2022-12-22T13:28:17.461Z,61.52
2022-12-22T13:29:24.285Z,61.12
2022-12-22T13:30:21.779Z,62.05
2022-12-22T13:31:46.176Z,61.85
2022-12-22T13:32:45.297Z,61.32
2022-12-22T13:33:44.905Z,60.80
2022-12-22T13:35:29.614Z,61.00
2022-12-22T13:36:20.187Z,61.98
2022-12-22T13:37:23.944Z,62.41
2022-12-22T13:38:30.970Z,61.87
2022-12-22T13:39:27.596Z,62.01
2022-12-22T13:40:39.625Z,62.24
2022-12-22T13:41:40.667Z,62.78
2022-12-22T13:42:45.322Z,62.22
2022-12-22T13:43:45.353Z,62.18
2022-12-22T13:44:42.725Z,62.26
2022-12-22T13:45:39.346Z,62.32
2022-12-22T13:46:37.716Z,62.77
2022-12-22T13:47:34.339Z,63.13
2022-12-22T13:48:43.576Z,63.78
2022-12-22T13:50:07.773Z,63.98
2022-12-22T13:51:04.348Z,62.70
2022-12-22T13:52:05.399Z,62.87
2022-12-22T13:53:04.035Z,63.42
2022-12-22T13:54:09.831Z,62.76
2022-12-22T13:55:14.631Z,62.07
2022-12-22T13:56:23.897Z,62.79
2022-12-22T13:57:22.394Z,63.91
2022-12-22T13:58:28.000Z,63.99
2022-12-22T13:59:30.687Z,64.42
2022-12-22T14:00:28.897Z,64.62
2022-12-22T14:01:26.228Z,64.56
2022-12-22T14:02:23.293Z,65.57
2022-12-22T14:03:50.001Z,65.85
2022-12-22T14:04:38.175Z,65.82